Time;durP1;ratioP1;P1;durP2;ratioP2;P2;SDS_P1;SDS_P2;PMS_P1;PMS_P2;Temp;Humidity;BMP_temperature;BMP_pressure;BME280_temperature;BME280_humidity;BME280_pressure;Samples;Min_cycle;Max_cycle;Signal;HPM_P1;HPM_P2
2022/05/16 00:02:03;;;;;;;4.10;3.40;;;18.50;64.50;;;;;;5055031;28;20439;-78
2022/05/16 00:04:29;;;;;;;5.70;3.87;;;18.50;64.20;;;;;;5045132;28;20424;-79
2022/05/16 00:06:55;;;;;;;5.57;3.97;;;18.50;64.20;;;;;;5052990;28;20464;-76
2022/05/16 00:09:21;;;;;;;6.03;3.80;;;18.40;63.50;;;;;;5053579;28;20236;-77
2022/05/16 00:11:46;;;;;;;7.10;3.77;;;18.40;63.40;;;;;;5053527;28;20481;-76
2022/05/16 00:14:12;;;;;;;5.93;3.80;;;18.40;63.10;;;;;;5057534;28;20186;-78
2022/05/16 00:16:38;;;;;;;5.03;4.03;;;18.50;63.20;;;;;;5055868;28;20191;-76
2022/05/16 00:19:05;;;;;;;5.07;3.47;;;18.50;62.90;;;;;;5057060;28;20210;-78
2022/05/16 00:21:31;;;;;;;4.40;3.27;;;18.50;62.60;;;;;;5056143;28;20468;-76
2022/05/16 00:23:57;;;;;;;4.27;3.47;;;18.40;63.20;;;;;;5057127;28;20426;-76
2022/05/16 00:26:23;;;;;;;4.53;3.50;;;18.50;63.20;;;;;;5056087;28;20452;-78
2022/05/16 00:28:49;;;;;;;4.50;3.17;;;18.50;63.20;;;;;;5057493;28;20228;-78
2022/05/16 00:31:14;;;;;;;5.10;3.40;;;18.50;63.40;;;;;;5057578;28;20182;-77
2022/05/16 00:33:41;;;;;;;7.47;3.70;;;18.50;63.10;;;;;;5059519;28;20176;-75
2022/05/16 00:36:08;;;;;;;5.13;3.13;;;18.50;62.90;;;;;;5053790;28;20178;-76
2022/05/16 00:38:33;;;;;;;6.53;3.37;;;18.50;62.20;;;;;;5055878;28;20432;-75
2022/05/16 00:41:02;;;;;;;6.57;3.53;;;18.50;62.20;;;;;;5065016;28;20498;-76
2022/05/16 00:43:56;;;;;;;7.10;3.37;;;18.50;62.80;;;;;;5065349;28;20484;-77
2022/05/16 00:46:25;;;;;;;4.40;3.20;;;18.50;63.10;;;;;;5055905;28;20540;-77
2022/05/16 00:48:50;;;;;;;4.53;3.27;;;18.50;63.10;;;;;;5052635;28;20987;-76
2022/05/16 00:51:43;;;;;;;4.30;3.13;;;18.50;63.10;;;;;;5051971;28;20420;-77
2022/05/16 00:54:18;;;;;;;3.90;2.83;;;18.50;63.40;;;;;;5052735;28;20218;-77
2022/05/16 00:56:45;;;;;;;5.30;3.50;;;18.50;63.40;;;;;;5052535;28;20424;-76
2022/05/16 00:59:11;;;;;;;5.23;3.07;;;18.50;63.20;;;;;;5051930;28;20429;-77
2022/05/16 01:07:09;;;;;;;4.00;2.97;;;18.40;62.90;;;;;;5049086;28;20535;-75
2022/05/16 01:09:34;;;;;;;4.30;3.37;;;18.30;62.90;;;;;;5052651;28;20512;-78
2022/05/16 01:12:01;;;;;;;4.10;3.40;;;18.20;63.40;;;;;;5052457;28;20195;-77
2022/05/16 01:14:41;;;;;;;5.47;3.30;;;18.20;63.80;;;;;;5051989;28;20205;-77
2022/05/16 01:17:08;;;;;;;6.23;3.50;;;18.20;63.90;;;;;;5052476;28;20420;-78
2022/05/16 01:19:34;;;;;;;4.93;3.40;;;18.10;64.10;;;;;;5052391;28;20415;-77
2022/05/16 01:22:05;;;;;;;4.50;3.27;;;18.10;64.70;;;;;;5051883;28;20432;-77
2022/05/16 01:24:31;;;;;;;5.90;3.53;;;18.10;64.80;;;;;;5057359;28;20222;-77
2022/05/16 01:26:56;;;;;;;9.03;3.70;;;18.00;64.10;;;;;;5065249;28;20462;-76
2022/05/16 01:29:22;;;;;;;5.33;2.90;;;18.00;64.80;;;;;;5064748;28;20186;-77
2022/05/16 01:31:48;;;;;;;5.17;2.93;;;17.90;65.10;;;;;;5061362;28;20211;-77
2022/05/16 01:34:14;;;;;;;4.43;3.00;;;17.90;65.40;;;;;;5058034;28;20347;-77
2022/05/16 01:36:40;;;;;;;6.37;3.20;;;18.00;65.30;;;;;;5052381;28;20181;-75
2022/05/16 01:39:06;;;;;;;3.67;3.33;;;17.90;65.10;;;;;;5052283;28;20531;-77
2022/05/16 01:41:31;;;;;;;5.17;3.10;;;17.90;65.40;;;;;;5051947;28;20204;-75
2022/05/16 01:44:00;;;;;;;5.10;3.50;;;17.90;65.40;;;;;;5053407;28;20952;-77
2022/05/16 01:46:35;;;;;;;3.73;3.23;;;17.90;65.40;;;;;;5051152;28;20208;-77
2022/05/16 01:49:01;;;;;;;4.27;2.87;;;17.90;65.00;;;;;;5051364;28;20481;-77
2022/05/16 01:51:27;;;;;;;4.33;3.03;;;17.70;64.40;;;;;;5050320;28;20470;-77
2022/05/16 01:53:53;;;;;;;5.67;3.17;;;17.70;65.00;;;;;;5050447;28;20443;-77
2022/05/16 01:56:19;;;;;;;3.33;2.87;;;17.70;64.80;;;;;;5050321;28;20192;-77
2022/05/16 01:58:45;;;;;;;3.93;3.07;;;17.70;65.30;;;;;;5050927;28;20428;-76
2022/05/16 02:01:12;;;;;;;3.17;2.70;;;17.70;64.50;;;;;;5050195;28;20663;-77
2022/05/16 02:03:40;;;;;;;5.20;3.53;;;17.70;65.10;;;;;;5050566;28;20983;-76
2022/05/16 02:06:06;;;;;;;5.00;3.60;;;17.70;65.30;;;;;;5048738;28;20502;-74
2022/05/16 02:08:33;;;;;;;7.23;2.90;;;17.70;65.10;;;;;;5049291;28;20419;-75
2022/05/16 02:11:04;;;;;;;4.00;3.20;;;17.70;65.30;;;;;;5050657;28;20414;-75
2022/05/16 02:13:30;;;;;;;5.40;3.80;;;17.80;65.60;;;;;;5049680;28;20804;-76
2022/05/16 02:15:55;;;;;;;5.13;3.83;;;17.70;65.60;;;;;;5051012;28;20427;-77
2022/05/16 02:18:22;;;;;;;6.47;3.50;;;17.70;65.70;;;;;;5050789;28;20200;-75
2022/05/16 02:20:48;;;;;;;4.70;3.50;;;17.70;65.70;;;;;;5051185;28;20431;-76
2022/05/16 02:25:58;;;;;;;4.97;3.80;;;17.70;65.60;;;;;;5051413;28;20469;-78
2022/05/16 02:28:25;;;;;;;4.87;3.93;;;17.70;65.30;;;;;;5051147;28;20426;-76
2022/05/16 02:30:52;;;;;;;7.43;3.67;;;17.60;65.70;;;;;;5051982;28;20990;-75
2022/05/16 02:33:18;;;;;;;7.13;3.77;;;17.50;66.10;;;;;;5051089;28;20450;-77
2022/05/16 02:35:46;;;;;;;6.77;3.67;;;17.50;66.40;;;;;;5052075;28;20415;-75
2022/05/16 02:38:13;;;;;;;6.57;4.07;;;17.40;66.00;;;;;;5051313;28;20922;-75
2022/05/16 02:40:39;;;;;;;4.83;3.70;;;17.40;66.10;;;;;;5051721;28;20899;-76
2022/05/16 02:43:05;;;;;;;6.37;3.70;;;17.40;66.00;;;;;;5050968;28;20440;-76
2022/05/16 02:45:32;;;;;;;4.97;3.60;;;17.40;66.10;;;;;;5051938;28;20422;-77
2022/05/16 02:47:58;;;;;;;6.07;3.80;;;17.40;66.00;;;;;;5051571;28;20424;-77
2022/05/16 02:50:25;;;;;;;5.63;3.93;;;17.50;66.00;;;;;;5052358;28;20448;-75
2022/05/16 02:52:52;;;;;;;5.97;4.43;;;17.50;65.80;;;;;;5052067;28;20593;-77
2022/05/16 02:55:17;;;;;;;4.60;3.30;;;17.50;66.10;;;;;;5050337;28;20782;-76
2022/05/16 02:57:43;;;;;;;6.47;3.57;;;17.50;66.00;;;;;;5051234;28;20423;-76
2022/05/16 03:00:12;;;;;;;7.50;3.77;;;17.50;65.70;;;;;;5051044;28;20554;-76
2022/05/16 03:02:39;;;;;;;5.90;2.87;;;17.60;65.70;;;;;;5050729;28;20200;-76
2022/05/16 03:05:06;;;;;;;5.43;3.63;;;17.70;65.60;;;;;;5054326;28;20451;-78
2022/05/16 03:07:32;;;;;;;6.13;3.70;;;17.70;65.60;;;;;;5046535;28;20474;-76
2022/05/16 03:09:58;;;;;;;4.77;3.37;;;17.80;65.00;;;;;;5054058;28;20419;-74
2022/05/16 03:12:24;;;;;;;4.30;3.40;;;17.70;65.00;;;;;;5053620;28;20446;-76
2022/05/16 03:14:50;;;;;;;6.83;3.47;;;17.80;65.10;;;;;;5053764;28;20184;-77
2022/05/16 03:17:15;;;;;;;9.23;3.97;;;17.80;65.00;;;;;;5054083;28;20180;-75
2022/05/16 03:19:42;;;;;;;5.43;3.60;;;17.80;65.10;;;;;;5052553;28;20547;-75
2022/05/16 03:22:08;;;;;;;6.60;4.20;;;17.90;65.10;;;;;;5053713;28;20256;-76
2022/05/16 03:24:34;;;;;;;6.53;3.60;;;17.90;65.00;;;;;;5054348;28;20909;-76
2022/05/16 03:27:00;;;;;;;5.37;3.70;;;17.90;64.50;;;;;;5054041;28;20460;-76
2022/05/16 03:29:26;;;;;;;5.50;3.80;;;18.00;64.50;;;;;;5054398;28;20465;-77
2022/05/16 03:31:54;;;;;;;6.17;3.77;;;17.90;64.70;;;;;;5053423;28;20443;-76
2022/05/16 03:34:20;;;;;;;5.67;3.60;;;17.90;64.80;;;;;;5054200;28;20547;-76
2022/05/16 03:36:45;;;;;;;4.73;3.43;;;17.90;65.10;;;;;;5053681;28;20510;-76
2022/05/16 03:41:56;;;;;;;4.77;3.53;;;18.00;65.30;;;;;;5053386;28;20227;-76
2022/05/16 03:44:23;;;;;;;7.77;4.23;;;18.00;65.30;;;;;;5056170;28;20425;-76
2022/05/16 03:46:49;;;;;;;6.80;4.27;;;18.10;65.10;;;;;;5061839;28;20528;-76
2022/05/16 03:49:15;;;;;;;4.07;3.50;;;18.10;64.80;;;;;;5058540;28;20429;-76
2022/05/16 03:51:41;;;;;;;6.97;3.90;;;18.10;64.50;;;;;;5054375;28;20568;-76
2022/05/16 03:54:08;;;;;;;6.80;4.00;;;18.10;64.70;;;;;;5055449;28;20444;-76
2022/05/16 03:56:34;;;;;;;9.07;3.60;;;18.20;64.50;;;;;;5053670;28;20435;-77
2022/05/16 03:59:00;;;;;;;3.93;3.23;;;18.20;64.70;;;;;;5054003;28;20474;-76
2022/05/16 04:01:27;;;;;;;4.50;3.57;;;18.20;64.80;;;;;;5052443;28;20445;-76
2022/05/16 04:03:53;;;;;;;7.03;3.60;;;18.30;64.80;;;;;;5054142;28;20842;-76
2022/05/16 04:06:19;;;;;;;5.83;3.57;;;18.30;64.40;;;;;;5053616;28;20451;-78
2022/05/16 04:08:46;;;;;;;5.50;3.50;;;18.30;64.40;;;;;;5053850;28;20513;-77
2022/05/16 04:11:16;;;;;;;5.47;3.50;;;18.20;64.80;;;;;;5053655;28;20919;-77
2022/05/16 04:13:46;;;;;;;6.07;3.80;;;18.20;65.00;;;;;;5054244;28;20407;-76
2022/05/16 04:16:12;;;;;;;9.70;4.10;;;18.20;65.40;;;;;;5052795;28;20422;-76
2022/05/16 04:18:38;;;;;;;6.70;3.73;;;18.20;65.80;;;;;;5053887;28;20550;-76
2022/05/16 04:21:05;;;;;;;7.07;3.90;;;18.30;66.30;;;;;;5054094;28;20419;-76
2022/05/16 04:23:31;;;;;;;8.87;3.90;;;18.40;66.40;;;;;;5058163;28;20436;-77
2022/05/16 04:25:57;;;;;;;4.27;3.13;;;18.40;66.30;;;;;;5054020;28;20587;-77
2022/05/16 04:28:23;;;;;;;6.30;3.73;;;18.50;66.00;;;;;;5053215;28;20440;-77
2022/05/16 04:30:48;;;;;;;6.23;4.03;;;18.40;66.60;;;;;;5055129;28;21071;-78
2022/05/16 04:33:14;;;;;;;6.07;3.23;;;18.30;66.70;;;;;;5056239;28;20202;-77
2022/05/16 04:35:40;;;;;;;6.13;3.73;;;18.30;67.60;;;;;;5064728;28;20182;-77
2022/05/16 04:38:06;;;;;;;5.37;3.73;;;18.40;68.30;;;;;;5065382;28;20436;-76
2022/05/16 04:40:33;;;;;;;9.40;4.20;;;18.50;68.80;;;;;;5065224;28;20229;-77
2022/05/16 04:42:59;;;;;;;12.73;4.07;;;18.50;68.80;;;;;;5064316;28;20463;-78
2022/05/16 04:45:31;;;;;;;6.20;4.10;;;18.20;69.40;;;;;;5061633;28;20435;-78
2022/05/16 04:48:00;;;;;;;8.00;4.37;;;18.20;70.50;;;;;;5062417;28;20452;-78
2022/05/16 04:50:28;;;;;;;8.80;3.60;;;18.30;71.30;;;;;;5060872;28;20423;-77
2022/05/16 04:52:56;;;;;;;6.33;3.90;;;18.30;71.00;;;;;;5059149;28;21201;-77
2022/05/16 04:55:23;;;;;;;6.60;4.47;;;18.40;71.70;;;;;;5061177;28;20409;-78
2022/05/16 04:57:49;;;;;;;7.37;4.37;;;18.50;73.00;;;;;;5059665;28;20486;-77
2022/05/16 05:00:17;;;;;;;6.43;4.50;;;18.50;73.90;;;;;;5061432;28;20483;-77
2022/05/16 05:02:44;;;;;;;5.07;4.00;;;18.60;73.50;;;;;;5059825;28;20513;-78
2022/05/16 05:05:11;;;;;;;5.50;3.97;;;18.60;72.00;;;;;;5065483;28;20446;-77
2022/05/16 05:07:37;;;;;;;7.07;4.43;;;18.80;71.00;;;;;;5069415;28;20465;-77
2022/05/16 05:15:36;;;;;;;5.37;4.03;;;18.70;70.20;;;;;;5057756;28;20462;-78
2022/05/16 05:18:03;;;;;;;7.87;4.43;;;18.70;70.80;;;;;;5069081;28;20446;-77
2022/05/16 05:20:29;;;;;;;8.37;4.27;;;18.70;70.80;;;;;;5060104;28;20439;-78
2022/05/16 05:22:56;;;;;;;7.73;4.07;;;18.80;70.80;;;;;;5057692;28;20908;-77
2022/05/16 05:25:22;;;;;;;6.67;3.57;;;18.90;69.90;;;;;;5058415;28;20426;-78
2022/05/16 05:27:48;;;;;;;5.20;3.90;;;19.00;69.80;;;;;;5054933;28;20458;-77
2022/05/16 05:30:17;;;;;;;7.37;4.43;;;19.00;69.90;;;;;;5066321;28;20240;-77
2022/05/16 05:32:43;;;;;;;5.33;4.20;;;18.90;69.90;;;;;;5055874;28;20506;-78
2022/05/16 05:35:10;;;;;;;7.30;4.43;;;19.00;69.80;;;;;;5058763;28;20418;-77
2022/05/16 05:37:36;;;;;;;7.60;4.63;;;19.10;69.50;;;;;;5059495;28;20515;-78
2022/05/16 05:40:04;;;;;;;10.10;4.27;;;19.10;69.80;;;;;;5065484;28;20460;-77
2022/05/16 05:42:31;;;;;;;9.07;4.20;;;19.00;69.70;;;;;;5060332;28;20433;-78
2022/05/16 05:44:58;;;;;;;7.47;4.90;;;19.00;70.20;;;;;;5072010;28;20426;-77
2022/05/16 05:47:25;;;;;;;7.70;4.20;;;19.00;70.10;;;;;;5063877;28;20476;-77
2022/05/16 05:49:50;;;;;;;5.50;4.50;;;19.10;69.70;;;;;;5060727;28;20951;-78
2022/05/16 05:52:16;;;;;;;7.23;4.17;;;19.00;69.80;;;;;;5057739;28;20540;-78
2022/05/16 05:54:43;;;;;;;7.00;4.40;;;19.20;69.50;;;;;;5058670;28;20223;-78
2022/05/16 05:57:10;;;;;;;8.87;5.07;;;19.30;69.70;;;;;;5057512;28;20207;-78
2022/05/16 05:59:35;;;;;;;8.10;4.33;;;19.40;69.50;;;;;;5053259;28;20518;-77
2022/05/16 06:02:01;;;;;;;11.53;5.17;;;19.40;69.40;;;;;;5053607;28;20529;-77
2022/05/16 06:04:27;;;;;;;14.60;5.17;;;19.40;69.50;;;;;;5054163;28;20426;-77
2022/05/16 06:06:53;;;;;;;5.77;5.03;;;19.50;69.80;;;;;;5052718;28;20463;-77
2022/05/16 06:09:19;;;;;;;9.20;4.97;;;19.50;69.70;;;;;;5053545;28;20187;-78
2022/05/16 06:11:44;;;;;;;7.83;4.80;;;19.50;69.40;;;;;;5051954;28;20889;-78
2022/05/16 06:14:10;;;;;;;9.30;4.70;;;19.60;69.50;;;;;;5054618;28;20607;-77
2022/05/16 06:16:36;;;;;;;7.00;4.80;;;19.60;69.50;;;;;;5053917;28;20183;-78
2022/05/16 06:19:02;;;;;;;9.13;4.50;;;19.50;69.80;;;;;;5057404;28;20252;-77
2022/05/16 06:21:27;;;;;;;7.50;5.17;;;19.60;69.90;;;;;;5055341;28;20189;-76
2022/05/16 06:23:53;;;;;;;9.57;5.00;;;19.60;69.90;;;;;;5055015;28;20255;-78
2022/05/16 06:26:19;;;;;;;9.43;4.23;;;19.60;69.90;;;;;;5053729;28;20197;-78
2022/05/16 06:28:45;;;;;;;10.40;5.60;;;19.60;69.80;;;;;;5052327;28;20188;-76
2022/05/16 06:31:10;;;;;;;6.47;4.57;;;19.60;69.40;;;;;;5051751;28;20420;-76
2022/05/16 06:33:36;;;;;;;8.70;4.70;;;19.70;69.70;;;;;;5054375;28;20281;-80
2022/05/16 06:36:05;;;;;;;9.77;5.10;;;19.80;69.50;;;;;;5058359;28;20180;-79
2022/05/16 06:38:34;;;;;;;11.57;5.83;;;19.80;69.40;;;;;;5061244;28;20489;-80
2022/05/16 06:41:00;;;;;;;7.90;5.33;;;19.90;69.50;;;;;;5063672;28;20422;-80
2022/05/16 06:43:29;;;;;;;9.70;5.43;;;20.00;69.20;;;;;;5060870;28;20450;-78
2022/05/16 06:45:55;;;;;;;6.60;4.47;;;20.20;68.60;;;;;;5060281;28;20783;-80
2022/05/16 06:48:21;;;;;;;8.00;5.10;;;20.30;68.80;;;;;;5057677;28;20415;-80
2022/05/16 06:50:48;;;;;;;10.13;5.50;;;20.50;67.30;;;;;;5059384;28;20424;-80
2022/05/16 06:53:17;;;;;;;9.30;5.30;;;20.60;67.90;;;;;;5057546;28;20461;-75
2022/05/16 06:55:43;;;;;;;8.20;5.73;;;20.80;67.20;;;;;;5056512;28;20421;-78
2022/05/16 06:58:09;;;;;;;8.60;5.30;;;20.90;66.60;;;;;;5057160;28;20416;-80
2022/05/16 07:00:35;;;;;;;8.00;5.07;;;21.20;65.80;;;;;;5057256;28;20417;-80
2022/05/16 07:03:01;;;;;;;10.10;5.70;;;21.40;64.50;;;;;;5057093;28;20470;-80
2022/05/16 07:05:27;;;;;;;8.47;5.60;;;21.50;64.40;;;;;;5057612;28;20458;-80
2022/05/16 07:07:53;;;;;;;10.20;5.07;;;21.70;64.50;;;;;;5055771;28;20976;-81
2022/05/16 07:10:18;;;;;;;10.20;4.50;;;21.80;63.10;;;;;;5059958;28;20272;-80
2022/05/16 07:12:44;;;;;;;7.83;4.40;;;22.10;62.60;;;;;;5057456;28;20218;-79
2022/05/16 07:15:11;;;;;;;11.13;5.00;;;22.30;61.60;;;;;;5055225;28;20640;-80
2022/05/16 07:17:36;;;;;;;11.43;5.30;;;22.50;61.50;;;;;;5057262;28;20178;-81
2022/05/16 07:20:03;;;;;;;7.20;4.50;;;22.70;61.00;;;;;;5059816;28;20792;-82
2022/05/16 07:22:29;;;;;;;6.27;4.27;;;22.90;60.30;;;;;;5061575;28;20205;-82
2022/05/16 07:24:59;;;;;;;11.97;5.43;;;23.10;59.90;;;;;;5062288;28;20515;-81
2022/05/16 07:30:12;;;;;;;6.37;4.63;;;23.50;58.90;;;;;;5067816;28;20446;-81
2022/05/16 07:32:43;;;;;;;8.77;5.17;;;23.60;58.50;;;;;;5059236;28;20498;-80
2022/05/16 07:35:17;;;;;;;7.07;4.50;;;23.50;58.90;;;;;;5057170;28;20428;-82
2022/05/16 07:37:44;;;;;;;14.60;5.13;;;23.30;59.70;;;;;;5058551;28;20428;-80
2022/05/16 07:40:12;;;;;;;9.03;5.43;;;23.30;60.10;;;;;;5056271;28;20428;-80
2022/05/16 07:42:39;;;;;;;7.53;5.10;;;23.30;60.40;;;;;;5058043;28;20443;-79
2022/05/16 07:45:07;;;;;;;11.70;5.87;;;23.20;62.00;;;;;;5057618;28;20422;-82
2022/05/16 07:47:33;;;;;;;10.97;4.70;;;23.30;62.30;;;;;;5055935;28;20460;-80
2022/05/16 07:50:01;;;;;;;7.83;5.60;;;23.20;62.00;;;;;;5059935;28;20421;-79
2022/05/16 07:52:28;;;;;;;12.20;5.90;;;23.10;61.70;;;;;;5058147;28;20966;-81
2022/05/16 07:54:54;;;;;;;7.03;5.67;;;23.10;62.30;;;;;;5057735;28;20808;-81
2022/05/16 07:57:20;;;;;;;10.70;5.50;;;23.10;61.60;;;;;;5057007;28;20954;-80
2022/05/16 07:59:47;;;;;;;9.37;5.07;;;23.10;62.30;;;;;;5041579;28;20454;-83
2022/05/16 08:02:13;;;;;;;9.90;5.40;;;23.20;63.40;;;;;;5057960;28;20448;-80
2022/05/16 08:04:40;;;;;;;8.97;6.60;;;23.00;63.80;;;;;;5058542;28;20198;-82
2022/05/16 08:07:06;;;;;;;8.77;5.97;;;23.00;66.60;;;;;;5056137;28;20462;-81
2022/05/16 08:12:25;;;;;;;10.67;6.23;;;21.80;73.20;;;;;;5056380;28;20433;-80
2022/05/16 08:14:52;;;;;;;12.33;6.83;;;21.50;74.00;;;;;;5059811;28;20417;-79
2022/05/16 08:17:18;;;;;;;10.37;6.80;;;21.40;73.60;;;;;;5057376;28;20940;-79
2022/05/16 08:19:44;;;;;;;13.13;6.43;;;21.40;73.90;;;;;;5060560;28;20450;-80
2022/05/16 08:22:10;;;;;;;11.77;6.80;;;21.30;75.20;;;;;;5056489;28;20964;-81
2022/05/16 08:24:36;;;;;;;10.20;6.33;;;21.30;75.80;;;;;;5059072;28;20186;-79
2022/05/16 08:27:02;;;;;;;11.90;6.23;;;21.30;75.40;;;;;;5058216;28;20222;-81
2022/05/16 08:29:29;;;;;;;12.33;7.17;;;21.30;75.80;;;;;;5057823;28;20258;-80
2022/05/16 08:31:55;;;;;;;15.40;7.00;;;21.40;75.80;;;;;;5060618;28;20446;-81
2022/05/16 08:34:21;;;;;;;10.17;6.30;;;21.60;75.40;;;;;;5057757;28;20450;-81
2022/05/16 08:42:18;;;;;;;13.80;7.10;;;21.90;72.90;;;;;;5057190;28;20500;-79
2022/05/16 08:44:50;;;;;;;9.80;6.30;;;22.10;71.00;;;;;;5055350;28;20420;-81
2022/05/16 08:47:33;;;;;;;9.93;5.93;;;22.20;69.80;;;;;;5056427;28;20467;-80
2022/05/16 08:50:04;;;;;;;12.17;6.63;;;22.30;69.40;;;;;;5058003;28;20678;-82
2022/05/16 08:52:45;;;;;;;9.33;6.33;;;22.40;68.00;;;;;;5058314;28;20533;-80
2022/05/16 08:55:23;;;;;;;8.83;6.17;;;22.40;68.30;;;;;;5057934;28;20497;-82
2022/05/16 08:58:10;;;;;;;8.60;5.77;;;22.60;67.90;;;;;;5059068;28;20487;-79
2022/05/16 09:00:51;;;;;;;14.47;6.57;;;22.90;66.60;;;;;;5061645;28;20972;-80
2022/05/16 09:04:07;;;;;;;9.47;6.33;;;23.20;65.60;;;;;;5063788;28;20456;-81
2022/05/16 09:06:43;;;;;;;11.23;6.57;;;23.50;64.70;;;;;;5003180;28;20470;-80
2022/05/16 09:09:15;;;;;;;13.27;7.13;;;23.80;63.20;;;;;;5021240;28;20453;-80
2022/05/16 09:11:50;;;;;;;11.20;6.73;;;24.00;63.20;;;;;;5027337;28;20531;-81
2022/05/16 09:14:18;;;;;;;9.40;6.40;;;24.10;62.60;;;;;;5013121;28;20455;-78
2022/05/16 09:16:59;;;;;;;9.90;6.27;;;24.20;61.50;;;;;;5003303;28;20437;-80
2022/05/16 09:19:45;;;;;;;10.53;6.17;;;24.20;61.30;;;;;;5024752;28;20430;-79
2022/05/16 09:22:38;;;;;;;9.73;5.67;;;24.40;61.30;;;;;;5027236;28;20478;-80
2022/05/16 09:25:14;;;;;;;13.80;6.13;;;24.70;60.00;;;;;;5021362;28;20428;-79
2022/05/16 09:30:29;;;;;;;13.67;6.00;;;24.90;58.40;;;;;;5024562;28;20445;-81
2022/05/16 09:33:03;;;;;;;10.80;6.40;;;25.00;56.50;;;;;;5000421;28;20513;-80
2022/05/16 09:36:02;;;;;;;7.83;5.83;;;25.00;56.50;;;;;;4998927;28;20430;-81
2022/05/16 09:38:29;;;;;;;10.70;5.83;;;25.20;56.50;;;;;;5014904;28;20417;-81
2022/05/16 09:41:01;;;;;;;11.50;6.60;;;25.30;54.40;;;;;;5015910;28;21000;-81
2022/05/16 09:43:45;;;;;;;11.03;6.50;;;25.30;56.10;;;;;;5045245;28;20456;-78
2022/05/16 09:46:32;;;;;;;9.33;6.17;;;25.30;54.20;;;;;;5052414;28;20468;-81
2022/05/16 09:49:10;;;;;;;16.10;6.17;;;25.20;54.20;;;;;;5055935;28;20421;-78
2022/05/16 09:51:56;;;;;;;11.07;5.67;;;25.10;54.20;;;;;;5055859;28;20518;-79
2022/05/16 09:54:30;;;;;;;11.40;6.10;;;25.20;54.90;;;;;;5053569;28;20995;-81
2022/05/16 09:57:21;;;;;;;13.53;5.70;;;25.20;54.80;;;;;;5055059;28;20425;-77
2022/05/16 10:00:10;;;;;;;13.17;6.53;;;25.20;54.40;;;;;;5055068;28;20420;-80
2022/05/16 10:02:37;;;;;;;27.23;6.90;;;25.10;55.20;;;;;;5055009;28;20437;-80
2022/05/16 10:05:24;;;;;;;9.30;6.10;;;25.20;54.40;;;;;;5056567;28;20540;-80
2022/05/16 10:07:58;;;;;;;10.10;6.23;;;25.40;54.80;;;;;;5051286;28;20203;-81
2022/05/16 10:10:28;;;;;;;8.37;6.43;;;25.90;54.00;;;;;;5056745;28;20415;-80
2022/05/16 10:12:56;;;;;;;9.40;6.47;;;26.30;51.20;;;;;;5055349;28;20431;-81
2022/05/16 10:15:22;;;;;;;11.07;6.03;;;26.50;51.60;;;;;;5057828;28;20419;-81
2022/05/16 10:17:52;;;;;;;11.47;6.50;;;26.50;50.50;;;;;;5054526;28;20440;-80
2022/05/16 10:20:22;;;;;;;7.80;5.90;;;26.40;50.60;;;;;;5054184;28;20529;-81
2022/05/16 10:22:53;;;;;;;9.87;6.20;;;26.30;51.80;;;;;;5054720;28;20441;-81
2022/05/16 10:25:22;;;;;;;16.67;6.40;;;26.10;51.60;;;;;;5056884;28;20425;-80
2022/05/16 10:27:51;;;;;;;9.30;6.30;;;26.30;51.60;;;;;;5059146;28;20460;-81
2022/05/16 10:30:22;;;;;;;19.07;6.07;;;26.50;51.80;;;;;;5059539;28;20932;-81
2022/05/16 10:35:53;;;;;;;10.53;7.07;;;26.60;51.80;;;;;;5055028;28;20405;-79
2022/05/16 10:38:21;;;;;;;10.93;6.17;;;26.00;52.60;;;;;;5054720;28;20417;-82
2022/05/16 10:40:54;;;;;;;11.50;6.70;;;25.60;53.60;;;;;;5054599;28;20428;-81
2022/05/16 10:43:47;;;;;;;7.90;5.70;;;25.40;54.20;;;;;;5053438;28;20444;-79
2022/05/16 10:46:19;;;;;;;10.10;6.20;;;25.00;55.70;;;;;;5050926;28;20561;-80
2022/05/16 10:48:53;;;;;;;11.23;5.90;;;25.00;55.60;;;;;;5052797;28;20417;-80
2022/05/16 10:51:27;;;;;;;11.57;6.80;;;24.90;56.10;;;;;;5053663;28;20473;-80
2022/05/16 10:54:08;;;;;;;9.33;6.23;;;24.90;56.60;;;;;;5052405;28;20505;-82
2022/05/16 10:57:04;;;;;;;8.27;4.83;;;25.00;56.00;;;;;;5053689;28;20895;-81
2022/05/16 10:59:55;;;;;;;10.07;5.77;;;25.10;55.20;;;;;;5052402;28;20448;-81
2022/05/16 11:02:39;;;;;;;9.03;4.50;;;24.90;55.30;;;;;;5052674;28;20436;-81
2022/05/16 11:05:17;;;;;;;9.00;5.20;;;25.00;55.20;;;;;;5052954;28;20431;-79
2022/05/16 11:08:23;;;;;;;12.97;4.00;;;25.20;54.40;;;;;;5053570;28;20906;-80
2022/05/16 11:11:12;;;;;;;14.00;4.13;;;25.00;54.80;;;;;;4995435;28;20430;-81
2022/05/16 11:13:59;;;;;;;10.10;4.53;;;24.80;55.80;;;;;;5004590;28;20445;-80
2022/05/16 11:16:32;;;;;;;6.77;3.70;;;24.60;56.40;;;;;;5013783;28;20655;-80
2022/05/16 11:19:16;;;;;;;7.13;4.30;;;24.60;56.50;;;;;;4997889;28;20957;-79
2022/05/16 11:21:44;;;;;;;6.40;4.27;;;24.30;57.80;;;;;;5005689;28;20441;-81
2022/05/16 11:24:47;;;;;;;9.20;4.50;;;24.30;58.10;;;;;;5013321;28;20453;-82
2022/05/16 11:27:34;;;;;;;12.50;4.37;;;24.10;59.10;;;;;;4998764;28;20471;-82
2022/05/16 11:30:08;;;;;;;15.60;5.30;;;23.70;59.60;;;;;;4994347;28;21048;-83
2022/05/16 11:32:40;;;;;;;9.00;3.90;;;23.60;60.30;;;;;;5004429;28;20881;-83
2022/05/16 11:35:11;;;;;;;8.57;4.03;;;23.60;59.30;;;;;;4999646;28;20423;-81
2022/05/16 11:37:55;;;;;;;8.97;3.43;;;23.40;60.00;;;;;;5018562;28;20459;-84
2022/05/16 11:40:32;;;;;;;14.00;3.57;;;23.30;60.60;;;;;;5015928;28;20525;-82
2022/05/16 11:43:13;;;;;;;9.87;3.30;;;23.30;60.30;;;;;;5053039;28;20443;-82
2022/05/16 11:46:17;;;;;;;9.87;3.00;;;23.20;60.30;;;;;;5056639;28;20771;-81
2022/05/16 11:49:02;;;;;;;4.80;2.70;;;23.00;60.00;;;;;;5056338;28;20436;-81
2022/05/16 11:51:45;;;;;;;4.50;2.70;;;22.80;61.00;;;;;;5066554;28;21145;-82
2022/05/16 11:54:15;;;;;;;5.07;2.50;;;22.70;60.60;;;;;;5061754;28;20513;-81
2022/05/16 12:02:32;;;;;;;5.27;2.40;;;22.30;59.10;;;;;;5042852;28;20420;-80
2022/05/16 12:05:01;;;;;;;6.60;2.30;;;22.20;59.20;;;;;;5054606;28;20419;-81
2022/05/16 12:07:36;;;;;;;6.30;2.33;;;22.10;59.50;;;;;;5059121;28;20455;-81
2022/05/16 12:10:22;;;;;;;4.83;2.50;;;22.00;60.00;;;;;;5055560;28;20923;-80
2022/05/16 12:13:29;;;;;;;3.00;2.23;;;21.80;60.90;;;;;;5052919;28;20449;-79
2022/05/16 12:16:16;;;;;;;6.47;2.20;;;21.40;64.70;;;;;;5051520;28;20411;-81
2022/05/16 12:18:48;;;;;;;5.03;2.33;;;20.80;69.40;;;;;;5049046;28;20468;-79
2022/05/16 12:21:19;;;;;;;5.33;2.80;;;20.00;75.40;;;;;;5057086;28;20508;-81
2022/05/16 12:23:54;;;;;;;6.53;2.80;;;19.40;79.20;;;;;;5059874;28;20419;-80
2022/05/16 12:26:26;;;;;;;5.80;3.13;;;18.70;83.40;;;;;;5059107;28;20563;-81
2022/05/16 12:29:13;;;;;;;9.10;3.80;;;18.30;85.90;;;;;;5060472;28;20789;-79
2022/05/16 12:31:44;;;;;;;8.03;3.90;;;18.00;87.00;;;;;;5053946;28;20550;-80
2022/05/16 12:34:14;;;;;;;7.47;3.53;;;17.80;88.60;;;;;;5053474;28;20838;-79
2022/05/16 12:36:40;;;;;;;7.17;2.90;;;17.70;90.10;;;;;;5054120;28;20474;-78
2022/05/16 12:39:18;;;;;;;7.40;3.47;;;17.50;90.00;;;;;;5053918;28;20760;-77
2022/05/16 12:42:21;;;;;;;8.13;3.30;;;17.40;90.90;;;;;;5053455;28;20519;-77
2022/05/16 12:45:00;;;;;;;5.73;2.93;;;17.30;91.60;;;;;;5050862;28;20910;-76
2022/05/16 12:47:57;;;;;;;5.37;2.83;;;17.30;91.90;;;;;;5052021;28;20466;-78
2022/05/16 12:50:34;;;;;;;10.47;4.20;;;17.20;92.70;;;;;;5052850;28;20438;-77
2022/05/16 12:53:39;;;;;;;5.30;3.17;;;17.20;93.20;;;;;;5055388;28;20443;-78
2022/05/16 12:56:51;;;;;;;9.80;4.00;;;17.10;93.00;;;;;;5052002;28;20497;-76
2022/05/16 12:59:46;;;;;;;7.37;3.40;;;17.20;93.90;;;;;;5021376;28;20493;-76
2022/05/16 13:02:34;;;;;;;6.20;3.30;;;17.20;93.70;;;;;;5054366;28;20446;-78
2022/05/16 13:05:29;;;;;;;8.07;3.20;;;17.40;93.90;;;;;;5037722;28;20448;-76
2022/05/16 13:08:19;;;;;;;6.83;2.67;;;17.50;93.40;;;;;;5057089;28;20511;-77
2022/05/16 13:10:50;;;;;;;8.20;2.80;;;17.80;92.60;;;;;;5054474;28;20414;-77
2022/05/16 13:13:37;;;;;;;3.70;2.10;;;18.20;92.00;;;;;;5054879;28;20440;-77
2022/05/16 13:16:05;;;;;;;7.27;2.90;;;18.80;88.70;;;;;;5052574;28;20497;-77
2022/05/16 13:18:40;;;;;;;4.17;2.80;;;19.40;86.90;;;;;;5036819;28;20422;-76
2022/05/16 13:21:13;;;;;;;8.03;2.87;;;19.90;83.00;;;;;;5056529;28;20491;-79
2022/05/16 13:23:39;;;;;;;6.70;3.20;;;20.30;82.20;;;;;;5056967;28;20439;-76
2022/05/16 13:31:49;;;;;;;11.63;2.53;;;20.70;78.00;;;;;;5051904;28;20442;-77
2022/05/16 13:34:28;;;;;;;6.53;2.90;;;20.60;77.40;;;;;;5042843;28;20937;-79
2022/05/16 13:36:54;;;;;;;6.40;2.63;;;20.70;77.30;;;;;;5056969;28;20420;-76
2022/05/16 13:39:20;;;;;;;4.20;2.60;;;21.00;76.80;;;;;;5054383;28;20420;-76
2022/05/16 13:42:00;;;;;;;7.13;3.17;;;21.10;78.10;;;;;;5056177;28;21120;-77
2022/05/16 13:44:37;;;;;;;9.07;2.90;;;21.40;78.00;;;;;;5061305;28;20211;-77
2022/05/16 13:47:10;;;;;;;7.97;2.90;;;21.70;77.40;;;;;;5060098;28;20453;-77
2022/05/16 13:49:37;;;;;;;10.10;2.83;;;22.10;76.10;;;;;;5045824;28;20475;-77
2022/05/16 13:52:03;;;;;;;10.03;3.27;;;22.50;74.90;;;;;;5050994;28;20520;-76